sensor_id;sensor_type;location;lat;lon;timestamp;P1;durP1;ratioP1;P2;durP2;ratioP2
11100;SDS011;5604;50.722;7.078;2023-04-24T00:02:13;1.80;;;0.60;;
11100;SDS011;5604;50.722;7.078;2023-04-24T00:04:42;0.80;;;0.80;;
11100;SDS011;5604;50.722;7.078;2023-04-24T00:07:16;1.13;;;0.90;;
11100;SDS011;5604;50.722;7.078;2023-04-24T00:09:44;0.67;;;0.67;;
11100;SDS011;5604;50.722;7.078;2023-04-24T00:12:12;3.03;;;0.77;;
11100;SDS011;5604;50.722;7.078;2023-04-24T00:14:40;0.80;;;0.80;;
11100;SDS011;5604;50.722;7.078;2023-04-24T00:17:08;1.23;;;0.80;;
11100;SDS011;5604;50.722;7.078;2023-04-24T00:19:36;1.00;;;0.80;;
11100;SDS011;5604;50.722;7.078;2023-04-24T00:22:04;1.27;;;0.80;;
11100;SDS011;5604;50.722;7.078;2023-04-24T00:24:34;2.57;;;0.80;;
11100;SDS011;5604;50.722;7.078;2023-04-24T00:27:34;0.83;;;0.60;;
11100;SDS011;5604;50.722;7.078;2023-04-24T00:30:04;0.63;;;0.60;;
11100;SDS011;5604;50.722;7.078;2023-04-24T00:32:33;1.40;;;0.90;;
11100;SDS011;5604;50.722;7.078;2023-04-24T00:35:01;0.80;;;0.80;;
11100;SDS011;5604;50.722;7.078;2023-04-24T00:37:29;0.60;;;0.60;;
11100;SDS011;5604;50.722;7.078;2023-04-24T00:39:59;0.70;;;0.70;;
11100;SDS011;5604;50.722;7.078;2023-04-24T00:42:27;1.60;;;0.80;;
11100;SDS011;5604;50.722;7.078;2023-04-24T00:44:55;0.73;;;0.73;;
11100;SDS011;5604;50.722;7.078;2023-04-24T00:47:24;0.80;;;0.80;;
11100;SDS011;5604;50.722;7.078;2023-04-24T00:49:52;0.80;;;0.80;;
11100;SDS011;5604;50.722;7.078;2023-04-24T00:52:20;0.87;;;0.70;;
11100;SDS011;5604;50.722;7.078;2023-04-24T00:54:50;0.67;;;0.67;;
11100;SDS011;5604;50.722;7.078;2023-04-24T00:57:20;1.07;;;0.80;;
11100;SDS011;5604;50.722;7.078;2023-04-24T00:59:50;0.80;;;0.80;;
11100;SDS011;5604;50.722;7.078;2023-04-24T01:02:18;2.43;;;0.63;;
11100;SDS011;5604;50.722;7.078;2023-04-24T01:04:48;0.63;;;0.60;;
11100;SDS011;5604;50.722;7.078;2023-04-24T01:07:18;1.90;;;0.90;;
11100;SDS011;5604;50.722;7.078;2023-04-24T01:09:48;0.70;;;0.70;;
11100;SDS011;5604;50.722;7.078;2023-04-24T01:12:17;3.53;;;0.70;;
11100;SDS011;5604;50.722;7.078;2023-04-24T01:14:47;0.77;;;0.77;;
11100;SDS011;5604;50.722;7.078;2023-04-24T01:17:15;0.50;;;0.50;;
11100;SDS011;5604;50.722;7.078;2023-04-24T01:19:43;0.70;;;0.70;;
11100;SDS011;5604;50.722;7.078;2023-04-24T01:22:14;0.70;;;0.70;;
11100;SDS011;5604;50.722;7.078;2023-04-24T01:24:42;1.13;;;1.00;;
11100;SDS011;5604;50.722;7.078;2023-04-24T01:27:11;1.07;;;1.07;;
11100;SDS011;5604;50.722;7.078;2023-04-24T01:29:39;1.23;;;1.17;;
11100;SDS011;5604;50.722;7.078;2023-04-24T01:32:09;2.13;;;1.40;;
11100;SDS011;5604;50.722;7.078;2023-04-24T01:34:37;1.80;;;1.30;;
11100;SDS011;5604;50.722;7.078;2023-04-24T01:37:06;1.20;;;1.10;;
11100;SDS011;5604;50.722;7.078;2023-04-24T01:39:36;1.30;;;1.20;;
11100;SDS011;5604;50.722;7.078;2023-04-24T01:42:04;2.30;;;1.30;;
11100;SDS011;5604;50.722;7.078;2023-04-24T01:44:33;1.47;;;1.30;;
11100;SDS011;5604;50.722;7.078;2023-04-24T01:47:02;1.60;;;1.23;;
11100;SDS011;5604;50.722;7.078;2023-04-24T01:49:31;2.50;;;1.20;;
11100;SDS011;5604;50.722;7.078;2023-04-24T01:51:59;2.10;;;1.50;;
11100;SDS011;5604;50.722;7.078;2023-04-24T01:54:29;1.77;;;1.67;;
11100;SDS011;5604;50.722;7.078;2023-04-24T01:56:59;1.70;;;1.60;;
11100;SDS011;5604;50.722;7.078;2023-04-24T01:59:28;1.40;;;1.30;;
11100;SDS011;5604;50.722;7.078;2023-04-24T02:01:57;1.70;;;1.60;;
11100;SDS011;5604;50.722;7.078;2023-04-24T02:04:25;2.40;;;1.73;;
11100;SDS011;5604;50.722;7.078;2023-04-24T02:06:54;2.33;;;1.80;;
11100;SDS011;5604;50.722;7.078;2023-04-24T02:09:23;2.00;;;1.90;;
11100;SDS011;5604;50.722;7.078;2023-04-24T02:11:51;2.17;;;1.97;;
11100;SDS011;5604;50.722;7.078;2023-04-24T02:14:21;3.47;;;2.77;;
11100;SDS011;5604;50.722;7.078;2023-04-24T02:16:49;5.33;;;2.50;;
11100;SDS011;5604;50.722;7.078;2023-04-24T02:19:17;3.80;;;2.93;;
11100;SDS011;5604;50.722;7.078;2023-04-24T02:21:45;3.30;;;2.37;;
11100;SDS011;5604;50.722;7.078;2023-04-24T02:24:13;3.20;;;2.90;;
11100;SDS011;5604;50.722;7.078;2023-04-24T02:26:42;3.40;;;3.07;;
11100;SDS011;5604;50.722;7.078;2023-04-24T02:29:10;3.30;;;3.03;;
11100;SDS011;5604;50.722;7.078;2023-04-24T02:31:39;3.30;;;3.00;;
11100;SDS011;5604;50.722;7.078;2023-04-24T02:34:07;3.33;;;3.13;;
11100;SDS011;5604;50.722;7.078;2023-04-24T02:36:36;3.80;;;3.20;;
11100;SDS011;5604;50.722;7.078;2023-04-24T02:39:04;3.67;;;2.90;;
11100;SDS011;5604;50.722;7.078;2023-04-24T02:41:33;3.37;;;2.80;;
11100;SDS011;5604;50.722;7.078;2023-04-24T02:44:01;3.63;;;3.17;;
11100;SDS011;5604;50.722;7.078;2023-04-24T02:46:29;4.20;;;3.20;;
11100;SDS011;5604;50.722;7.078;2023-04-24T02:48:58;5.03;;;3.80;;
11100;SDS011;5604;50.722;7.078;2023-04-24T02:51:27;3.63;;;3.20;;
11100;SDS011;5604;50.722;7.078;2023-04-24T02:53:55;6.20;;;3.70;;
11100;SDS011;5604;50.722;7.078;2023-04-24T02:56:23;4.00;;;3.67;;
11100;SDS011;5604;50.722;7.078;2023-04-24T02:58:52;4.23;;;3.87;;
11100;SDS011;5604;50.722;7.078;2023-04-24T03:01:20;3.93;;;3.53;;
11100;SDS011;5604;50.722;7.078;2023-04-24T03:03:48;6.07;;;4.57;;
11100;SDS011;5604;50.722;7.078;2023-04-24T03:06:18;5.00;;;4.50;;
11100;SDS011;5604;50.722;7.078;2023-04-24T03:08:47;4.50;;;4.10;;
11100;SDS011;5604;50.722;7.078;2023-04-24T03:11:15;5.77;;;4.73;;
11100;SDS011;5604;50.722;7.078;2023-04-24T03:13:43;4.77;;;4.10;;
11100;SDS011;5604;50.722;7.078;2023-04-24T03:16:11;5.00;;;4.30;;
11100;SDS011;5604;50.722;7.078;2023-04-24T03:18:39;5.67;;;4.63;;
11100;SDS011;5604;50.722;7.078;2023-04-24T03:21:08;6.07;;;4.90;;
11100;SDS011;5604;50.722;7.078;2023-04-24T03:23:37;5.40;;;4.90;;
11100;SDS011;5604;50.722;7.078;2023-04-24T03:26:06;5.17;;;4.67;;
11100;SDS011;5604;50.722;7.078;2023-04-24T03:28:37;4.90;;;4.50;;
11100;SDS011;5604;50.722;7.078;2023-04-24T03:31:06;5.13;;;4.60;;
11100;SDS011;5604;50.722;7.078;2023-04-24T03:33:36;5.57;;;4.53;;
11100;SDS011;5604;50.722;7.078;2023-04-24T03:36:06;5.20;;;4.70;;
11100;SDS011;5604;50.722;7.078;2023-04-24T03:38:39;7.53;;;4.70;;
11100;SDS011;5604;50.722;7.078;2023-04-24T03:41:36;4.77;;;4.37;;
11100;SDS011;5604;50.722;7.078;2023-04-24T03:44:11;4.80;;;4.40;;
11100;SDS011;5604;50.722;7.078;2023-04-24T03:46:40;4.43;;;4.07;;
11100;SDS011;5604;50.722;7.078;2023-04-24T03:49:08;4.53;;;4.13;;
11100;SDS011;5604;50.722;7.078;2023-04-24T03:51:40;5.43;;;4.47;;
11100;SDS011;5604;50.722;7.078;2023-04-24T03:54:20;4.87;;;4.47;;
11100;SDS011;5604;50.722;7.078;2023-04-24T03:56:50;5.93;;;4.43;;
11100;SDS011;5604;50.722;7.078;2023-04-24T03:59:18;4.67;;;4.27;;
11100;SDS011;5604;50.722;7.078;2023-04-24T04:01:56;5.27;;;4.73;;
11100;SDS011;5604;50.722;7.078;2023-04-24T04:04:24;4.57;;;4.17;;
11100;SDS011;5604;50.722;7.078;2023-04-24T04:06:52;5.07;;;4.60;;
11100;SDS011;5604;50.722;7.078;2023-04-24T04:09:22;5.20;;;4.63;;
11100;SDS011;5604;50.722;7.078;2023-04-24T04:11:51;4.80;;;4.40;;
11100;SDS011;5604;50.722;7.078;2023-04-24T04:14:19;4.83;;;4.40;;
11100;SDS011;5604;50.722;7.078;2023-04-24T04:16:47;4.97;;;4.10;;
11100;SDS011;5604;50.722;7.078;2023-04-24T04:19:19;5.40;;;4.33;;
11100;SDS011;5604;50.722;7.078;2023-04-24T04:21:47;5.40;;;4.90;;
11100;SDS011;5604;50.722;7.078;2023-04-24T04:24:28;5.40;;;4.60;;
11100;SDS011;5604;50.722;7.078;2023-04-24T04:26:57;5.27;;;4.77;;
11100;SDS011;5604;50.722;7.078;2023-04-24T04:29:30;5.30;;;4.60;;
11100;SDS011;5604;50.722;7.078;2023-04-24T04:32:00;9.90;;;4.67;;
11100;SDS011;5604;50.722;7.078;2023-04-24T04:34:29;4.90;;;4.50;;
11100;SDS011;5604;50.722;7.078;2023-04-24T04:36:59;6.57;;;5.10;;
11100;SDS011;5604;50.722;7.078;2023-04-24T04:39:42;5.40;;;4.87;;
11100;SDS011;5604;50.722;7.078;2023-04-24T04:42:16;4.90;;;4.50;;
11100;SDS011;5604;50.722;7.078;2023-04-24T04:44:45;5.20;;;4.70;;
11100;SDS011;5604;50.722;7.078;2023-04-24T04:47:17;4.87;;;4.33;;
11100;SDS011;5604;50.722;7.078;2023-04-24T04:49:45;5.33;;;4.83;;
11100;SDS011;5604;50.722;7.078;2023-04-24T04:52:18;5.07;;;4.57;;
11100;SDS011;5604;50.722;7.078;2023-04-24T04:54:53;7.63;;;5.50;;
11100;SDS011;5604;50.722;7.078;2023-04-24T04:57:25;5.87;;;4.83;;
11100;SDS011;5604;50.722;7.078;2023-04-24T04:59:53;6.50;;;4.70;;
11100;SDS011;5604;50.722;7.078;2023-04-24T05:02:34;6.83;;;4.37;;
11100;SDS011;5604;50.722;7.078;2023-04-24T05:05:04;4.90;;;4.40;;
11100;SDS011;5604;50.722;7.078;2023-04-24T05:07:32;7.47;;;4.60;;
11100;SDS011;5604;50.722;7.078;2023-04-24T05:10:02;8.70;;;5.30;;
11100;SDS011;5604;50.722;7.078;2023-04-24T05:12:31;5.83;;;4.97;;
11100;SDS011;5604;50.722;7.078;2023-04-24T05:15:01;4.73;;;4.30;;
11100;SDS011;5604;50.722;7.078;2023-04-24T05:17:29;5.13;;;4.37;;
11100;SDS011;5604;50.722;7.078;2023-04-24T05:19:58;5.47;;;4.57;;
11100;SDS011;5604;50.722;7.078;2023-04-24T05:22:29;4.73;;;4.03;;
11100;SDS011;5604;50.722;7.078;2023-04-24T05:24:57;6.03;;;4.70;;
11100;SDS011;5604;50.722;7.078;2023-04-24T05:27:37;4.80;;;4.40;;
11100;SDS011;5604;50.722;7.078;2023-04-24T05:30:12;4.20;;;3.80;;
11100;SDS011;5604;50.722;7.078;2023-04-24T05:32:40;4.60;;;4.20;;
11100;SDS011;5604;50.722;7.078;2023-04-24T05:35:08;4.53;;;4.13;;
11100;SDS011;5604;50.722;7.078;2023-04-24T05:37:36;4.97;;;4.47;;
11100;SDS011;5604;50.722;7.078;2023-04-24T05:40:06;4.53;;;4.13;;
11100;SDS011;5604;50.722;7.078;2023-04-24T05:42:36;5.97;;;4.10;;
11100;SDS011;5604;50.722;7.078;2023-04-24T05:45:05;5.67;;;4.00;;
11100;SDS011;5604;50.722;7.078;2023-04-24T05:47:34;5.83;;;4.40;;
11100;SDS011;5604;50.722;7.078;2023-04-24T05:50:02;5.80;;;4.60;;
11100;SDS011;5604;50.722;7.078;2023-04-24T05:52:31;5.47;;;4.27;;
11100;SDS011;5604;50.722;7.078;2023-04-24T05:55:02;4.50;;;4.10;;
11100;SDS011;5604;50.722;7.078;2023-04-24T05:57:37;5.20;;;4.57;;
11100;SDS011;5604;50.722;7.078;2023-04-24T06:00:06;5.33;;;4.83;;
11100;SDS011;5604;50.722;7.078;2023-04-24T06:02:41;4.90;;;4.40;;
11100;SDS011;5604;50.722;7.078;2023-04-24T06:05:13;5.40;;;4.90;;
11100;SDS011;5604;50.722;7.078;2023-04-24T06:07:41;6.67;;;4.77;;
11100;SDS011;5604;50.722;7.078;2023-04-24T06:10:09;4.60;;;4.20;;
11100;SDS011;5604;50.722;7.078;2023-04-24T06:12:44;4.67;;;4.27;;
11100;SDS011;5604;50.722;7.078;2023-04-24T06:15:16;4.73;;;4.33;;
11100;SDS011;5604;50.722;7.078;2023-04-24T06:18:10;5.77;;;4.70;;
11100;SDS011;5604;50.722;7.078;2023-04-24T06:20:40;4.90;;;4.40;;
11100;SDS011;5604;50.722;7.078;2023-04-24T06:23:09;4.87;;;4.23;;
11100;SDS011;5604;50.722;7.078;2023-04-24T06:25:37;6.53;;;4.67;;
11100;SDS011;5604;50.722;7.078;2023-04-24T06:28:06;5.10;;;4.43;;
11100;SDS011;5604;50.722;7.078;2023-04-24T06:30:34;4.97;;;4.47;;
11100;SDS011;5604;50.722;7.078;2023-04-24T06:33:02;5.73;;;4.40;;
11100;SDS011;5604;50.722;7.078;2023-04-24T06:35:45;6.17;;;4.73;;
11100;SDS011;5604;50.722;7.078;2023-04-24T06:38:13;5.10;;;4.17;;
11100;SDS011;5604;50.722;7.078;2023-04-24T06:40:42;4.90;;;4.37;;
11100;SDS011;5604;50.722;7.078;2023-04-24T06:43:12;6.20;;;5.13;;
11100;SDS011;5604;50.722;7.078;2023-04-24T06:45:41;5.60;;;4.10;;
11100;SDS011;5604;50.722;7.078;2023-04-24T06:48:10;6.13;;;4.40;;
11100;SDS011;5604;50.722;7.078;2023-04-24T06:50:38;4.90;;;4.40;;
11100;SDS011;5604;50.722;7.078;2023-04-24T06:53:06;4.67;;;4.27;;
11100;SDS011;5604;50.722;7.078;2023-04-24T06:55:35;4.83;;;4.33;;
11100;SDS011;5604;50.722;7.078;2023-04-24T06:58:03;4.10;;;3.63;;
11100;SDS011;5604;50.722;7.078;2023-04-24T07:00:33;4.10;;;3.80;;
11100;SDS011;5604;50.722;7.078;2023-04-24T07:03:02;4.30;;;3.97;;
11100;SDS011;5604;50.722;7.078;2023-04-24T07:05:31;4.20;;;3.83;;
11100;SDS011;5604;50.722;7.078;2023-04-24T07:08:01;4.50;;;3.70;;
11100;SDS011;5604;50.722;7.078;2023-04-24T07:10:29;4.10;;;3.70;;
11100;SDS011;5604;50.722;7.078;2023-04-24T07:12:57;3.60;;;3.30;;
11100;SDS011;5604;50.722;7.078;2023-04-24T07:15:25;3.60;;;3.20;;
11100;SDS011;5604;50.722;7.078;2023-04-24T07:17:55;2.93;;;2.63;;
11100;SDS011;5604;50.722;7.078;2023-04-24T07:20:23;3.20;;;2.90;;
11100;SDS011;5604;50.722;7.078;2023-04-24T07:22:51;2.60;;;2.40;;
11100;SDS011;5604;50.722;7.078;2023-04-24T07:25:20;2.67;;;2.47;;
11100;SDS011;5604;50.722;7.078;2023-04-24T07:27:48;2.70;;;2.50;;
11100;SDS011;5604;50.722;7.078;2023-04-24T07:30:16;4.10;;;2.70;;
11100;SDS011;5604;50.722;7.078;2023-04-24T07:32:44;2.60;;;2.40;;
11100;SDS011;5604;50.722;7.078;2023-04-24T07:35:14;3.17;;;2.47;;
11100;SDS011;5604;50.722;7.078;2023-04-24T07:37:42;2.70;;;2.50;;
11100;SDS011;5604;50.722;7.078;2023-04-24T07:40:12;2.20;;;2.00;;
11100;SDS011;5604;50.722;7.078;2023-04-24T07:42:42;1.90;;;1.77;;
11100;SDS011;5604;50.722;7.078;2023-04-24T07:45:10;2.10;;;2.00;;
11100;SDS011;5604;50.722;7.078;2023-04-24T07:47:38;2.23;;;1.97;;
11100;SDS011;5604;50.722;7.078;2023-04-24T07:50:07;1.90;;;1.80;;
11100;SDS011;5604;50.722;7.078;2023-04-24T07:52:36;2.00;;;1.90;;
11100;SDS011;5604;50.722;7.078;2023-04-24T07:55:05;3.90;;;2.00;;
11100;SDS011;5604;50.722;7.078;2023-04-24T07:57:33;1.90;;;1.80;;
11100;SDS011;5604;50.722;7.078;2023-04-24T08:00:02;2.13;;;1.93;;
11100;SDS011;5604;50.722;7.078;2023-04-24T08:02:37;1.90;;;1.57;;
11100;SDS011;5604;50.722;7.078;2023-04-24T08:05:05;1.50;;;1.40;;
11100;SDS011;5604;50.722;7.078;2023-04-24T08:07:34;2.17;;;1.60;;
11100;SDS011;5604;50.722;7.078;2023-04-24T08:10:04;1.70;;;1.60;;
11100;SDS011;5604;50.722;7.078;2023-04-24T08:12:33;2.07;;;1.53;;
11100;SDS011;5604;50.722;7.078;2023-04-24T08:15:01;1.53;;;1.43;;
11100;SDS011;5604;50.722;7.078;2023-04-24T08:17:30;1.50;;;1.40;;
11100;SDS011;5604;50.722;7.078;2023-04-24T08:19:58;1.57;;;1.40;;
11100;SDS011;5604;50.722;7.078;2023-04-24T08:22:29;1.87;;;1.50;;
11100;SDS011;5604;50.722;7.078;2023-04-24T08:24:59;1.77;;;1.67;;
11100;SDS011;5604;50.722;7.078;2023-04-24T08:27:30;1.80;;;1.70;;
11100;SDS011;5604;50.722;7.078;2023-04-24T08:29:58;2.13;;;1.80;;
11100;SDS011;5604;50.722;7.078;2023-04-24T08:32:26;1.80;;;1.70;;
11100;SDS011;5604;50.722;7.078;2023-04-24T08:34:55;2.30;;;2.10;;
11100;SDS011;5604;50.722;7.078;2023-04-24T08:37:23;1.90;;;1.80;;
11100;SDS011;5604;50.722;7.078;2023-04-24T08:39:53;2.40;;;2.20;;
11100;SDS011;5604;50.722;7.078;2023-04-24T08:42:21;2.57;;;2.10;;
11100;SDS011;5604;50.722;7.078;2023-04-24T08:44:50;1.70;;;1.60;;
11100;SDS011;5604;50.722;7.078;2023-04-24T08:47:20;2.33;;;2.13;;
11100;SDS011;5604;50.722;7.078;2023-04-24T08:49:48;3.80;;;2.23;;
11100;SDS011;5604;50.722;7.078;2023-04-24T08:52:18;2.60;;;2.40;;
11100;SDS011;5604;50.722;7.078;2023-04-24T08:54:47;2.97;;;2.47;;
11100;SDS011;5604;50.722;7.078;2023-04-24T08:57:15;3.43;;;2.77;;
11100;SDS011;5604;50.722;7.078;2023-04-24T08:59:45;2.77;;;2.57;;
11100;SDS011;5604;50.722;7.078;2023-04-24T09:02:14;4.97;;;3.07;;
11100;SDS011;5604;50.722;7.078;2023-04-24T09:04:44;3.70;;;3.30;;
11100;SDS011;5604;50.722;7.078;2023-04-24T09:07:13;4.07;;;3.67;;
11100;SDS011;5604;50.722;7.078;2023-04-24T09:09:43;4.73;;;4.23;;
11100;SDS011;5604;50.722;7.078;2023-04-24T09:12:11;4.27;;;3.40;;
11100;SDS011;5604;50.722;7.078;2023-04-24T09:14:40;3.83;;;3.53;;
11100;SDS011;5604;50.722;7.078;2023-04-24T09:17:12;3.60;;;3.30;;
11100;SDS011;5604;50.722;7.078;2023-04-24T09:19:43;3.83;;;3.50;;
11100;SDS011;5604;50.722;7.078;2023-04-24T09:22:11;4.00;;;3.60;;
11100;SDS011;5604;50.722;7.078;2023-04-24T09:24:40;4.83;;;3.80;;
11100;SDS011;5604;50.722;7.078;2023-04-24T09:27:08;4.53;;;4.07;;
11100;SDS011;5604;50.722;7.078;2023-04-24T09:29:39;4.67;;;4.10;;
11100;SDS011;5604;50.722;7.078;2023-04-24T09:32:21;4.03;;;3.67;;
11100;SDS011;5604;50.722;7.078;2023-04-24T09:35:06;5.00;;;3.73;;
11100;SDS011;5604;50.722;7.078;2023-04-24T09:37:35;5.63;;;4.53;;
11100;SDS011;5604;50.722;7.078;2023-04-24T09:40:15;4.77;;;4.33;;
11100;SDS011;5604;50.722;7.078;2023-04-24T09:42:44;4.57;;;3.70;;
11100;SDS011;5604;50.722;7.078;2023-04-24T09:45:13;3.50;;;3.20;;
11100;SDS011;5604;50.722;7.078;2023-04-24T09:47:41;6.90;;;3.40;;
11100;SDS011;5604;50.722;7.078;2023-04-24T09:50:13;3.30;;;3.00;;
11100;SDS011;5604;50.722;7.078;2023-04-24T09:52:43;6.63;;;3.50;;
11100;SDS011;5604;50.722;7.078;2023-04-24T09:55:16;3.77;;;2.80;;
11100;SDS011;5604;50.722;7.078;2023-04-24T09:57:49;3.90;;;3.07;;
11100;SDS011;5604;50.722;7.078;2023-04-24T10:00:19;4.20;;;3.67;;
11100;SDS011;5604;50.722;7.078;2023-04-24T10:02:50;5.60;;;3.43;;
11100;SDS011;5604;50.722;7.078;2023-04-24T10:05:23;3.60;;;3.10;;
11100;SDS011;5604;50.722;7.078;2023-04-24T10:07:55;3.87;;;3.33;;
11100;SDS011;5604;50.722;7.078;2023-04-24T10:10:24;4.53;;;3.30;;
11100;SDS011;5604;50.722;7.078;2023-04-24T10:12:53;4.00;;;3.60;;
11100;SDS011;5604;50.722;7.078;2023-04-24T10:15:22;3.40;;;3.00;;
11100;SDS011;5604;50.722;7.078;2023-04-24T10:17:51;3.50;;;3.20;;
11100;SDS011;5604;50.722;7.078;2023-04-24T10:20:20;4.03;;;3.20;;
11100;SDS011;5604;50.722;7.078;2023-04-24T10:22:51;3.93;;;3.40;;
11100;SDS011;5604;50.722;7.078;2023-04-24T10:25:21;5.43;;;3.73;;
11100;SDS011;5604;50.722;7.078;2023-04-24T10:27:50;4.20;;;3.80;;
11100;SDS011;5604;50.722;7.078;2023-04-24T10:30:19;4.23;;;3.23;;
11100;SDS011;5604;50.722;7.078;2023-04-24T10:32:47;3.60;;;3.00;;
11100;SDS011;5604;50.722;7.078;2023-04-24T10:35:17;4.33;;;3.43;;
11100;SDS011;5604;50.722;7.078;2023-04-24T10:37:52;4.93;;;3.13;;
11100;SDS011;5604;50.722;7.078;2023-04-24T10:40:25;6.67;;;3.60;;
11100;SDS011;5604;50.722;7.078;2023-04-24T10:42:54;4.03;;;3.17;;
11100;SDS011;5604;50.722;7.078;2023-04-24T10:45:24;3.60;;;3.13;;
11100;SDS011;5604;50.722;7.078;2023-04-24T10:47:56;5.10;;;3.70;;
11100;SDS011;5604;50.722;7.078;2023-04-24T10:50:26;5.10;;;3.53;;
11100;SDS011;5604;50.722;7.078;2023-04-24T10:53:06;6.60;;;3.90;;
11100;SDS011;5604;50.722;7.078;2023-04-24T10:55:39;6.03;;;3.60;;
11100;SDS011;5604;50.722;7.078;2023-04-24T10:58:09;5.33;;;3.93;;
11100;SDS011;5604;50.722;7.078;2023-04-24T11:00:38;6.33;;;4.20;;
11100;SDS011;5604;50.722;7.078;2023-04-24T11:03:12;6.10;;;4.10;;
11100;SDS011;5604;50.722;7.078;2023-04-24T11:05:52;9.23;;;5.30;;
11100;SDS011;5604;50.722;7.078;2023-04-24T11:08:24;6.73;;;4.90;;
11100;SDS011;5604;50.722;7.078;2023-04-24T11:10:55;6.60;;;4.90;;
11100;SDS011;5604;50.722;7.078;2023-04-24T11:13:25;6.03;;;5.43;;
11100;SDS011;5604;50.722;7.078;2023-04-24T11:16:11;8.13;;;5.57;;
11100;SDS011;5604;50.722;7.078;2023-04-24T11:18:41;5.93;;;5.33;;
11100;SDS011;5604;50.722;7.078;2023-04-24T11:21:12;7.13;;;5.37;;
11100;SDS011;5604;50.722;7.078;2023-04-24T11:23:42;7.97;;;5.83;;
11100;SDS011;5604;50.722;7.078;2023-04-24T11:26:11;8.73;;;5.87;;
11100;SDS011;5604;50.722;7.078;2023-04-24T11:28:44;6.30;;;5.10;;
11100;SDS011;5604;50.722;7.078;2023-04-24T11:34:08;8.03;;;5.73;;
11100;SDS011;5604;50.722;7.078;2023-04-24T11:36:36;7.17;;;5.23;;
11100;SDS011;5604;50.722;7.078;2023-04-24T11:39:06;6.90;;;4.40;;
11100;SDS011;5604;50.722;7.078;2023-04-24T11:41:34;5.53;;;4.67;;
11100;SDS011;5604;50.722;7.078;2023-04-24T11:44:03;7.87;;;4.60;;
11100;SDS011;5604;50.722;7.078;2023-04-24T11:46:33;8.73;;;5.10;;
11100;SDS011;5604;50.722;7.078;2023-04-24T11:49:02;9.17;;;4.93;;
11100;SDS011;5604;50.722;7.078;2023-04-24T11:51:30;6.67;;;4.00;;
11100;SDS011;5604;50.722;7.078;2023-04-24T11:54:15;4.83;;;4.13;;
11100;SDS011;5604;50.722;7.078;2023-04-24T11:56:44;7.30;;;4.17;;
11100;SDS011;5604;50.722;7.078;2023-04-24T11:59:12;7.60;;;4.50;;
11100;SDS011;5604;50.722;7.078;2023-04-24T12:01:44;8.50;;;3.97;;
11100;SDS011;5604;50.722;7.078;2023-04-24T12:04:13;9.43;;;4.50;;
11100;SDS011;5604;50.722;7.078;2023-04-24T12:09:29;7.13;;;3.57;;
11100;SDS011;5604;50.722;7.078;2023-04-24T12:12:08;7.50;;;4.53;;
11100;SDS011;5604;50.722;7.078;2023-04-24T12:14:47;5.47;;;4.10;;
11100;SDS011;5604;50.722;7.078;2023-04-24T12:17:16;6.33;;;4.80;;
11100;SDS011;5604;50.722;7.078;2023-04-24T12:19:45;7.70;;;4.50;;
11100;SDS011;5604;50.722;7.078;2023-04-24T12:22:14;7.40;;;4.80;;
11100;SDS011;5604;50.722;7.078;2023-04-24T12:24:56;8.93;;;5.27;;
11100;SDS011;5604;50.722;7.078;2023-04-24T12:27:29;7.77;;;5.03;;
11100;SDS011;5604;50.722;7.078;2023-04-24T12:29:59;6.70;;;5.10;;
11100;SDS011;5604;50.722;7.078;2023-04-24T12:32:32;9.03;;;5.53;;
11100;SDS011;5604;50.722;7.078;2023-04-24T12:35:00;7.57;;;4.77;;
11100;SDS011;5604;50.722;7.078;2023-04-24T12:37:33;7.97;;;5.07;;
11100;SDS011;5604;50.722;7.078;2023-04-24T12:40:05;5.63;;;4.60;;
11100;SDS011;5604;50.722;7.078;2023-04-24T12:42:35;6.10;;;4.50;;
11100;SDS011;5604;50.722;7.078;2023-04-24T12:45:04;5.97;;;4.43;;
11100;SDS011;5604;50.722;7.078;2023-04-24T12:47:34;8.77;;;5.80;;
11100;SDS011;5604;50.722;7.078;2023-04-24T12:50:03;10.30;;;5.77;;
11100;SDS011;5604;50.722;7.078;2023-04-24T12:52:32;7.97;;;5.30;;
11100;SDS011;5604;50.722;7.078;2023-04-24T12:55:01;7.23;;;5.43;;
11100;SDS011;5604;50.722;7.078;2023-04-24T12:57:31;6.50;;;4.80;;
11100;SDS011;5604;50.722;7.078;2023-04-24T12:59:59;6.97;;;4.80;;
11100;SDS011;5604;50.722;7.078;2023-04-24T13:02:28;7.70;;;4.77;;
11100;SDS011;5604;50.722;7.078;2023-04-24T13:04:58;8.63;;;4.53;;
11100;SDS011;5604;50.722;7.078;2023-04-24T13:07:27;6.77;;;4.60;;
11100;SDS011;5604;50.722;7.078;2023-04-24T13:09:55;7.27;;;4.87;;
11100;SDS011;5604;50.722;7.078;2023-04-24T13:12:24;10.63;;;5.00;;
11100;SDS011;5604;50.722;7.078;2023-04-24T13:14:54;6.50;;;4.17;;
11100;SDS011;5604;50.722;7.078;2023-04-24T13:17:22;7.17;;;4.10;;
11100;SDS011;5604;50.722;7.078;2023-04-24T13:19:51;6.50;;;3.73;;
11100;SDS011;5604;50.722;7.078;2023-04-24T13:22:19;4.67;;;3.23;;
11100;SDS011;5604;50.722;7.078;2023-04-24T13:24:48;7.73;;;4.00;;
11100;SDS011;5604;50.722;7.078;2023-04-24T13:27:17;5.10;;;3.47;;
11100;SDS011;5604;50.722;7.078;2023-04-24T13:29:46;5.27;;;3.87;;
11100;SDS011;5604;50.722;7.078;2023-04-24T13:32:17;5.97;;;3.70;;
11100;SDS011;5604;50.722;7.078;2023-04-24T13:34:46;5.07;;;3.80;;
11100;SDS011;5604;50.722;7.078;2023-04-24T13:37:15;8.63;;;4.00;;
11100;SDS011;5604;50.722;7.078;2023-04-24T13:39:43;6.10;;;3.80;;
11100;SDS011;5604;50.722;7.078;2023-04-24T13:42:11;5.07;;;3.97;;
11100;SDS011;5604;50.722;7.078;2023-04-24T13:44:39;7.07;;;4.40;;
11100;SDS011;5604;50.722;7.078;2023-04-24T13:47:07;7.30;;;4.17;;
11100;SDS011;5604;50.722;7.078;2023-04-24T13:49:37;12.60;;;4.63;;
11100;SDS011;5604;50.722;7.078;2023-04-24T13:52:05;5.30;;;3.83;;
11100;SDS011;5604;50.722;7.078;2023-04-24T13:54:33;7.00;;;4.13;;
11100;SDS011;5604;50.722;7.078;2023-04-24T13:57:02;5.80;;;4.03;;
11100;SDS011;5604;50.722;7.078;2023-04-24T13:59:30;6.50;;;3.77;;
11100;SDS011;5604;50.722;7.078;2023-04-24T14:01:59;7.70;;;4.07;;
11100;SDS011;5604;50.722;7.078;2023-04-24T14:04:27;8.67;;;3.87;;
11100;SDS011;5604;50.722;7.078;2023-04-24T14:06:57;7.33;;;4.20;;
11100;SDS011;5604;50.722;7.078;2023-04-24T14:09:25;4.67;;;3.80;;
11100;SDS011;5604;50.722;7.078;2023-04-24T14:11:53;6.50;;;3.97;;
11100;SDS011;5604;50.722;7.078;2023-04-24T14:14:21;6.13;;;4.27;;
11100;SDS011;5604;50.722;7.078;2023-04-24T14:16:49;9.97;;;5.57;;
11100;SDS011;5604;50.722;7.078;2023-04-24T14:19:17;9.30;;;5.27;;
11100;SDS011;5604;50.722;7.078;2023-04-24T14:21:46;7.10;;;5.30;;
11100;SDS011;5604;50.722;7.078;2023-04-24T14:24:15;10.83;;;5.60;;
11100;SDS011;5604;50.722;7.078;2023-04-24T14:26:43;7.95;;;5.15;;
11100;SDS011;5604;50.722;7.078;2023-04-24T14:29:11;10.37;;;5.80;;
11100;SDS011;5604;50.722;7.078;2023-04-24T14:31:41;8.17;;;5.10;;
11100;SDS011;5604;50.722;7.078;2023-04-24T14:34:09;9.93;;;5.47;;
11100;SDS011;5604;50.722;7.078;2023-04-24T14:36:37;7.70;;;5.30;;
11100;SDS011;5604;50.722;7.078;2023-04-24T14:39:05;11.67;;;5.63;;
11100;SDS011;5604;50.722;7.078;2023-04-24T14:41:35;10.37;;;5.57;;
11100;SDS011;5604;50.722;7.078;2023-04-24T14:44:04;8.20;;;5.23;;
11100;SDS011;5604;50.722;7.078;2023-04-24T14:46:32;6.87;;;5.17;;
11100;SDS011;5604;50.722;7.078;2023-04-24T14:49:01;8.43;;;5.10;;
11100;SDS011;5604;50.722;7.078;2023-04-24T14:51:29;6.27;;;5.03;;
11100;SDS011;5604;50.722;7.078;2023-04-24T14:53:58;5.17;;;4.03;;
11100;SDS011;5604;50.722;7.078;2023-04-24T14:56:26;7.53;;;4.83;;
11100;SDS011;5604;50.722;7.078;2023-04-24T14:58:56;7.70;;;4.07;;
11100;SDS011;5604;50.722;7.078;2023-04-24T15:01:24;7.97;;;4.70;;
11100;SDS011;5604;50.722;7.078;2023-04-24T15:03:52;6.03;;;4.37;;
11100;SDS011;5604;50.722;7.078;2023-04-24T15:06:20;6.10;;;4.37;;
11100;SDS011;5604;50.722;7.078;2023-04-24T15:08:48;9.20;;;4.50;;
11100;SDS011;5604;50.722;7.078;2023-04-24T15:11:17;5.13;;;4.17;;
11100;SDS011;5604;50.722;7.078;2023-04-24T15:13:45;6.30;;;4.00;;
11100;SDS011;5604;50.722;7.078;2023-04-24T15:16:15;7.93;;;3.70;;
11100;SDS011;5604;50.722;7.078;2023-04-24T15:18:43;6.87;;;4.03;;
11100;SDS011;5604;50.722;7.078;2023-04-24T15:21:11;5.67;;;3.77;;
11100;SDS011;5604;50.722;7.078;2023-04-24T15:23:40;7.53;;;3.83;;